Time;durP1;ratioP1;P1;durP2;ratioP2;P2;SDS_P1;SDS_P2;PMS_P1;PMS_P2;Temp;Humidity;BMP_temperature;BMP_pressure;BME280_temperature;BME280_humidity;BME280_pressure;Samples;Min_cycle;Max_cycle;Signal;HPM_P1;HPM_P2
2021/11/17 02:25:48;;;;;;;25.05;3.58;;;;;;;19.20;41.17;100977.88;3983825;32;15023485;-70
2021/11/17 02:33:55;;;;;;;27.52;3.35;;;;;;;18.99;42.75;100996.19;3985055;32;15028660;-69
2021/11/17 02:47:36;;;;;;;30.50;3.30;;;;;;;18.93;42.14;100981.03;3981287;32;15032077;-69
2021/11/17 02:50:42;;;;;;;27.77;3.37;;;;;;;18.80;42.61;100983.34;4436252;32;20081;-69
2021/11/17 02:53:35;;;;;;;26.00;3.92;;;;;;;18.88;42.08;100976.00;4432704;32;20118;-69
2021/11/17 03:01:47;;;;;;;38.20;4.57;;;;;;;19.25;41.98;100991.47;3956812;32;15726524;-69
2021/11/17 03:09:40;;;;;;;28.02;4.07;;;;;;;19.22;41.99;100972.47;3981180;32;15023955;-69
2021/11/17 03:15:08;;;;;;;29.25;4.28;;;;;;;18.79;42.67;100987.50;3949324;32;15970398;-68
2021/11/17 03:26:33;;;;;;;25.23;3.78;;;;;;;19.13;42.09;101015.34;3979702;32;15031527;-70
2021/11/17 03:42:44;;;;;;;16.87;2.50;;;;;;;18.27;41.70;101008.16;3955290;32;15721941;-69
2021/11/17 04:04:28;;;;;;;12.80;2.67;;;;;;;17.72;41.42;101002.78;3983419;32;15021531;-69
2021/11/17 04:10:08;;;;;;;16.87;2.87;;;;;;;17.99;41.53;101041.72;3982787;32;15021433;-70
2021/11/17 04:29:54;;;;;;;16.90;2.33;;;;;;;17.66;42.82;101058.78;3984881;32;15029530;-70
2021/11/17 05:14:14;;;;;;;16.45;2.22;;;;;;;17.29;44.67;101070.69;3998928;31;15016522;-68
2021/11/17 05:25:29;;;;;;;16.12;2.30;;;;;;;17.34;44.93;101095.66;3983640;32;15029494;-68
2021/11/17 05:31:17;;;;;;;14.45;2.80;;;;;;;16.57;45.82;101104.81;3926645;32;15028756;-68
2021/11/17 05:36:51;;;;;;;14.32;2.20;;;;;;;17.04;45.37;101120.19;3982782;32;15021778;-68
2021/11/17 05:42:15;;;;;;;19.08;2.83;;;;;;;16.68;45.61;101103.09;3983210;32;15022980;-68
2021/11/17 05:48:03;;;;;;;25.17;3.22;;;;;;;17.58;44.19;101117.28;3956609;32;15728431;-68
2021/11/17 05:56:00;;;;;;;22.37;3.75;;;;;;;17.77;44.36;101138.75;3982289;32;15026883;-68
2021/11/17 06:04:16;;;;;;;23.48;3.35;;;;;;;17.94;44.44;101141.25;4001573;31;15021056;-68
2021/11/17 06:06:44;;;;;;;21.73;2.87;;;;;;;17.94;44.44;101141.25;4451887;32;20082;-68
2021/11/17 06:09:12;;;;;;;17.60;3.42;;;;;;;17.51;44.94;101143.25;4449264;32;20151;-68
2021/11/17 06:14:17;;;;;;;21.73;2.87;;;;;;;18.05;44.01;101148.00;3981954;32;15022692;-68
2021/11/17 06:16:48;;;;;;;18.20;3.10;;;;;;;18.05;44.01;101148.00;4438239;32;20067;-68
2021/11/17 06:19:18;;;;;;;26.10;3.25;;;;;;;17.68;44.95;101146.53;4439010;32;20029;-68
2021/11/17 06:21:44;;;;;;;19.15;3.00;;;;;;;17.62;44.75;101146.38;4441296;32;20067;-68
2021/11/17 06:24:13;;;;;;;19.42;2.80;;;;;;;17.47;45.36;101150.38;4438772;32;20067;-68
2021/11/17 06:26:42;;;;;;;25.90;2.33;;;;;;;17.50;45.43;101150.22;4437042;32;20032;-68
2021/11/17 06:29:15;;;;;;;15.43;2.40;;;;;;;17.30;45.10;101161.25;4436541;32;20081;-68
2021/11/17 06:31:41;;;;;;;23.52;2.65;;;;;;;17.06;45.53;101162.37;4437288;32;20021;-68
2021/11/17 06:34:29;;;;;;;18.87;2.45;;;;;;;17.02;45.71;101158.87;4435252;32;20069;-68
2021/11/17 06:36:56;;;;;;;12.90;1.98;;;;;;;17.01;45.44;101160.94;4434985;32;20087;-68
2021/11/17 06:39:24;;;;;;;19.80;2.50;;;;;;;16.97;45.65;101162.34;4434405;32;20087;-68
2021/11/17 06:41:50;;;;;;;18.25;2.83;;;;;;;17.17;45.48;101165.50;4438758;32;20119;-68
2021/11/17 06:44:17;;;;;;;17.92;3.00;;;;;;;16.69;45.97;101152.97;4433180;32;20438;-68
2021/11/17 06:46:43;;;;;;;14.35;2.22;;;;;;;16.63;46.12;101157.69;4436645;32;20021;-68
2021/11/17 06:49:08;;;;;;;19.58;2.80;;;;;;;16.72;45.92;101160.56;4435770;32;20129;-68
2021/11/17 06:51:34;;;;;;;19.15;2.30;;;;;;;16.65;45.85;101162.91;4434175;32;20088;-68
2021/11/17 06:54:00;;;;;;;17.02;2.15;;;;;;;16.78;45.53;101153.00;4438532;32;20037;-68
2021/11/17 06:56:27;;;;;;;13.57;2.30;;;;;;;16.73;45.84;101150.00;4437293;32;20145;-68
2021/11/17 06:58:54;;;;;;;15.00;2.78;;;;;;;16.64;45.98;101161.34;4439647;32;20089;-70
2021/11/17 07:01:19;;;;;;;23.38;3.60;;;;;;;16.80;45.93;101159.03;4439101;32;20090;-68
2021/11/17 07:03:45;;;;;;;19.67;3.20;;;;;;;16.66;45.80;101159.59;4436217;32;20062;-68
2021/11/17 07:06:12;;;;;;;20.95;3.35;;;;;;;16.72;46.18;101156.97;4435636;32;20026;-68
2021/11/17 07:08:39;;;;;;;25.95;4.05;;;;;;;16.82;46.01;101169.91;4435133;32;20512;-68
2021/11/17 07:11:04;;;;;;;21.87;3.10;;;;;;;16.84;46.16;101182.37;4434686;32;20224;-68
2021/11/17 07:13:30;;;;;;;21.98;3.10;;;;;;;16.87;46.29;101177.81;4433630;32;20081;-68
2021/11/17 07:15:56;;;;;;;18.40;3.22;;;;;;;17.07;45.77;101181.81;4433647;32;20059;-68
2021/11/17 07:18:21;;;;;;;21.17;2.90;;;;;;;17.31;45.26;101191.28;4435972;32;20073;-68
2021/11/17 07:20:47;;;;;;;17.00;3.60;;;;;;;17.46;45.23;101209.31;4435712;32;20152;-68
2021/11/17 07:23:15;;;;;;;21.70;4.00;;;;;;;17.61;44.75;101210.25;4435874;32;20096;-68
2021/11/17 07:25:41;;;;;;;25.37;4.00;;;;;;;17.73;45.17;101217.03;4428293;32;20038;-69
2021/11/17 07:28:07;;;;;;;13.95;2.95;;;;;;;17.76;44.92;101221.78;4425627;32;20108;-68
2021/11/17 07:30:37;;;;;;;20.23;4.65;;;;;;;17.70;44.99;101224.50;4426726;32;20094;-68
2021/11/17 07:33:04;;;;;;;24.50;3.20;;;;;;;17.90;44.86;101221.16;4423287;32;20064;-68
2021/11/17 07:35:32;;;;;;;22.00;3.60;;;;;;;17.75;44.82;101220.22;4424450;32;20037;-68
2021/11/17 07:38:01;;;;;;;21.62;3.65;;;;;;;17.87;44.61;101225.75;4420718;32;20100;-68
2021/11/17 07:40:30;;;;;;;18.87;2.95;;;;;;;17.68;44.79;101234.78;4420928;32;20134;-68
2021/11/17 07:42:56;;;;;;;29.58;4.28;;;;;;;17.96;44.34;101236.31;4419867;32;20463;-68
2021/11/17 07:45:22;;;;;;;16.92;3.33;;;;;;;17.96;44.86;101249.75;4419502;32;20033;-68
2021/11/17 07:47:48;;;;;;;26.30;4.10;;;;;;;17.97;45.09;101245.66;4418849;32;20549;-68
2021/11/17 07:50:14;;;;;;;27.08;4.37;;;;;;;18.03;45.07;101247.37;4418292;32;20165;-68
2021/11/17 07:52:40;;;;;;;35.70;4.75;;;;;;;17.98;45.02;101250.84;4418642;32;20035;-68
2021/11/17 07:55:09;;;;;;;25.58;4.47;;;;;;;17.95;45.26;101259.59;4417831;32;20084;-68
2021/11/17 07:57:37;;;;;;;23.30;4.60;;;;;;;17.95;44.93;101262.44;4409678;32;20146;-68
2021/11/17 08:00:08;;;;;;;23.35;4.35;;;;;;;17.86;45.30;101260.37;4410194;32;20497;-68
2021/11/17 08:02:34;;;;;;;23.12;3.50;;;;;;;18.02;45.38;101259.25;4410937;32;20699;-69
2021/11/17 08:05:00;;;;;;;27.17;5.45;;;;;;;17.92;45.23;101262.09;4414979;32;20026;-68
2021/11/17 08:07:26;;;;;;;19.58;3.70;;;;;;;17.73;45.72;101262.59;4416280;32;20415;-68
2021/11/17 08:09:52;;;;;;;24.25;4.25;;;;;;;17.67;45.78;101270.19;4415929;32;20149;-68
2021/11/17 08:12:19;;;;;;;22.75;4.05;;;;;;;17.76;45.71;101268.13;4416155;32;20111;-68
2021/11/17 08:14:45;;;;;;;21.67;4.30;;;;;;;18.04;45.25;101265.25;4415822;32;20068;-68
2021/11/17 08:17:11;;;;;;;27.10;4.60;;;;;;;17.68;45.53;101278.25;4414743;32;20081;-68
2021/11/17 08:19:37;;;;;;;30.00;4.45;;;;;;;17.67;45.37;101273.84;4407358;32;20086;-68
2021/11/17 08:22:08;;;;;;;25.77;4.72;;;;;;;17.77;44.96;101266.09;4412965;32;20161;-68
2021/11/17 08:24:37;;;;;;;35.35;4.35;;;;;;;18.02;44.97;101259.25;4415035;32;20126;-69
2021/11/17 08:27:06;;;;;;;35.97;4.57;;;;;;;18.08;44.58;101266.69;4415281;32;20074;-69
2021/11/17 08:29:32;;;;;;;23.55;3.45;;;;;;;18.33;43.98;101265.50;4416620;32;20763;-69
2021/11/17 08:32:00;;;;;;;27.23;3.33;;;;;;;18.08;43.97;101288.66;4412199;32;20077;-68
2021/11/17 08:34:26;;;;;;;18.83;3.55;;;;;;;17.98;44.01;101298.50;4413514;32;20037;-69
2021/11/17 08:36:53;;;;;;;20.27;3.37;;;;;;;17.86;44.50;101295.34;4413510;32;20982;-69
2021/11/17 08:39:20;;;;;;;21.58;3.45;;;;;;;17.78;44.38;101293.28;4419527;32;20072;-69
2021/11/17 08:41:46;;;;;;;23.75;3.80;;;;;;;17.97;44.15;101291.22;4417730;32;20119;-69
2021/11/17 08:44:12;;;;;;;27.40;3.83;;;;;;;17.58;44.51;101293.75;4417293;32;20777;-69
2021/11/17 08:46:38;;;;;;;20.08;3.15;;;;;;;17.88;44.04;101292.81;4416451;32;20077;-69
2021/11/17 08:49:04;;;;;;;36.60;4.10;;;;;;;18.08;43.85;101308.59;4417270;32;20073;-68
2021/11/17 08:51:30;;;;;;;22.70;3.55;;;;;;;18.16;43.60;101307.78;4413878;32;20076;-68
2021/11/17 08:53:59;;;;;;;18.75;3.03;;;;;;;18.22;43.58;101311.59;4412517;32;20071;-68
2021/11/17 08:56:27;;;;;;;35.72;3.83;;;;;;;18.23;43.63;101304.63;4415207;32;20138;-68
2021/11/17 08:58:52;;;;;;;27.15;3.05;;;;;;;18.04;43.77;101296.59;4413800;32;20037;-68
2021/11/17 09:01:18;;;;;;;24.92;3.10;;;;;;;17.75;43.92;101309.28;4415205;32;20810;-69
2021/11/17 09:03:44;;;;;;;35.70;4.80;;;;;;;17.72;44.43;101310.22;4415856;32;20145;-69
2021/11/17 09:06:12;;;;;;;25.30;3.30;;;;;;;17.81;44.53;101320.81;4412806;32;20082;-70
2021/11/17 09:08:38;;;;;;;28.00;3.90;;;;;;;18.29;43.65;101325.53;4415752;32;20224;-69
2021/11/17 09:11:08;;;;;;;19.58;3.53;;;;;;;18.08;43.48;101329.34;4419359;32;20084;-69
2021/11/17 09:13:34;;;;;;;24.37;3.70;;;;;;;18.50;43.19;101326.62;4415874;32;20073;-69
2021/11/17 09:16:01;;;;;;;23.73;3.15;;;;;;;18.39;43.42;101329.97;4416502;32;20879;-69
2021/11/17 09:18:31;;;;;;;19.02;3.08;;;;;;;18.33;43.89;101346.09;4417448;32;20069;-69
2021/11/17 09:20:58;;;;;;;27.05;4.20;;;;;;;18.49;43.61;101328.66;4418476;32;20070;-69
2021/11/17 09:23:27;;;;;;;10.45;2.67;;;;;;;18.32;44.69;101329.47;4417053;32;20077;-69
2021/11/17 09:25:54;;;;;;;24.73;3.78;;;;;;;17.98;44.50;101318.44;4412969;32;20073;-69
2021/11/17 09:28:21;;;;;;;21.45;3.47;;;;;;;18.14;44.51;101321.75;4419110;32;20081;-69
2021/11/17 09:30:50;;;;;;;25.40;3.87;;;;;;;18.29;44.35;101336.94;4415698;32;20093;-69
2021/11/17 09:33:16;;;;;;;20.98;3.03;;;;;;;18.19;45.11;101341.03;4415762;32;20131;-69
2021/11/17 09:35:44;;;;;;;27.45;3.47;;;;;;;18.31;44.24;101347.84;4415260;32;20790;-69
2021/11/17 09:38:11;;;;;;;18.65;3.33;;;;;;;18.68;44.41;101343.66;4417124;32;20340;-69
2021/11/17 09:43:27;;;;;;;18.17;3.80;;;;;;;19.72;42.52;101351.84;3976813;32;15025844;-69
2021/11/17 09:45:54;;;;;;;23.33;3.42;;;;;;;19.72;42.52;101351.84;4429677;32;20474;-69
2021/11/17 09:48:26;;;;;;;22.65;3.85;;;;;;;19.85;42.19;101340.16;4431383;32;20482;-69
2021/11/17 09:50:58;;;;;;;27.05;4.30;;;;;;;20.02;41.54;101346.22;4429179;32;20092;-69
2021/11/17 09:53:35;;;;;;;24.00;4.43;;;;;;;20.36;41.08;101345.59;4427717;32;20053;-69
2021/11/17 09:56:06;;;;;;;15.27;3.80;;;;;;;19.99;41.00;101352.91;4424131;32;20077;-69
2021/11/17 09:58:36;;;;;;;22.13;4.00;;;;;;;20.25;40.64;101351.91;4428906;32;20072;-69
2021/11/17 10:01:32;;;;;;;32.03;3.85;;;;;;;20.30;39.92;101353.28;4424983;32;20037;-69
2021/11/17 10:04:21;;;;;;;16.62;3.87;;;;;;;20.15;40.31;101341.84;4425828;32;20596;-68
2021/11/17 10:15:03;;;;;;;18.15;3.78;;;;;;;20.85;39.10;101354.28;4429867;32;20190;-68
2021/11/17 10:18:04;;;;;;;24.85;3.45;;;;;;;20.85;38.76;101343.62;4428163;32;20087;-68
2021/11/17 10:23:16;;;;;;;18.52;3.62;;;;;;;21.00;38.07;101355.87;3977549;32;15053431;-70
2021/11/17 10:25:53;;;;;;;22.00;3.37;;;;;;;21.33;37.71;101352.72;4426326;32;20140;-70
2021/11/17 10:31:19;;;;;;;20.52;4.03;;;;;;;21.94;36.38;101348.66;3970568;32;15033320;-70
2021/11/17 10:41:53;;;;;;;18.08;3.15;;;;;;;22.47;35.51;101379.72;3992783;31;15017897;-70
2021/11/17 10:58:04;;;;;;;18.17;3.25;;;;;;;22.36;35.92;101371.78;3968973;32;15027843;-69
2021/11/17 11:00:35;;;;;;;20.40;3.72;;;;;;;22.36;35.92;101371.78;4419835;32;20075;-69
2021/11/17 11:03:02;;;;;;;17.12;3.50;;;;;;;21.96;35.87;101368.22;4415191;32;20341;-69
2021/11/17 11:05:45;;;;;;;26.58;5.62;;;;;;;21.93;35.96;101352.78;4417029;32;20144;-69
2021/11/17 11:10:51;;;;;;;20.15;3.87;;;;;;;22.47;35.44;101351.03;3949727;32;15741487;-70
2021/11/17 11:16:16;;;;;;;19.42;3.72;;;;;;;22.30;35.22;101347.22;3977321;32;15024054;-69
2021/11/17 11:18:47;;;;;;;21.65;3.20;;;;;;;22.73;34.95;101348.97;4427398;32;20222;-69
2021/11/17 11:21:17;;;;;;;18.30;4.20;;;;;;;22.87;34.34;101353.78;4428476;32;20072;-69
2021/11/17 11:24:22;;;;;;;20.77;3.50;;;;;;;22.23;35.35;101370.59;4427561;32;20064;-69
2021/11/17 11:29:50;;;;;;;18.73;4.03;;;;;;;22.82;34.87;101358.19;3976656;32;15022775;-69
2021/11/17 11:35:14;;;;;;;18.95;3.83;;;;;;;21.89;35.43;101371.47;3975894;32;15025780;-68
2021/11/17 11:45:42;;;;;;;23.15;3.55;;;;;;;20.99;37.89;101384.97;3986100;32;15028605;-70
2021/11/17 11:54:13;;;;;;;17.10;3.70;;;;;;;21.44;37.58;101385.19;3971152;32;15021367;-71
2021/11/17 11:56:44;;;;;;;16.42;3.67;;;;;;;21.44;37.58;101385.19;4431496;32;20087;-69
2021/11/17 11:59:15;;;;;;;25.42;4.35;;;;;;;20.94;38.16;101375.03;4432565;32;20462;-70
2021/11/17 12:01:41;;;;;;;22.60;5.00;;;;;;;20.93;38.33;101372.63;4429670;32;20085;-69
2021/11/17 12:04:15;;;;;;;27.25;5.20;;;;;;;20.34;39.46;101371.06;4416943;32;20088;-69
2021/11/17 12:06:56;;;;;;;26.35;5.53;;;;;;;20.46;39.63;101370.75;4431772;32;20148;-70
2021/11/17 12:09:32;;;;;;;25.15;5.32;;;;;;;20.78;39.45;101384.09;4432998;32;20431;-70
2021/11/17 12:12:07;;;;;;;23.85;4.07;;;;;;;20.93;39.11;101384.84;4435875;32;20602;-70
2021/11/17 12:14:47;;;;;;;23.80;4.47;;;;;;;20.58;39.25;101381.12;4430483;32;20071;-70
2021/11/17 12:17:20;;;;;;;19.77;3.97;;;;;;;20.85;38.81;101382.87;4429809;32;20102;-70
2021/11/17 12:19:52;;;;;;;24.30;5.55;;;;;;;20.42;39.80;101381.59;4433883;32;20083;-70
2021/11/17 12:22:42;;;;;;;22.73;4.95;;;;;;;20.64;40.10;101379.16;4431023;32;20077;-70
2021/11/17 12:28:00;;;;;;;29.42;4.90;;;;;;;21.26;39.90;101373.19;3977948;32;15021922;-70
2021/11/17 12:30:48;;;;;;;28.67;5.80;;;;;;;21.26;39.90;101373.19;4431191;32;20103;-70
2021/11/17 12:38:46;;;;;;;26.92;5.15;;;;;;;24.25;33.41;101361.16;3977313;32;15028266;-71
2021/11/17 12:41:30;;;;;;;16.27;3.78;;;;;;;24.25;33.41;101361.16;4430225;32;20065;-71
2021/11/17 12:54:39;;;;;;;22.33;4.45;;;;;;;23.45;33.57;101367.56;4000253;31;15016937;-69
2021/11/17 12:57:13;;;;;;;29.10;5.73;;;;;;;23.45;33.57;101367.56;4444080;32;20126;-69
2021/11/17 12:59:45;;;;;;;19.58;3.90;;;;;;;22.69;34.96;101366.41;4457750;32;20029;-70
2021/11/17 13:16:01;;;;;;;29.90;4.82;;;;;;;21.73;37.54;101393.09;3977303;32;15035037;-69
2021/11/17 13:21:28;;;;;;;28.30;5.75;;;;;;;22.21;36.93;101378.94;3972006;32;15138565;-69
2021/11/17 13:29:30;;;;;;;31.42;4.55;;;;;;;21.73;36.50;101369.97;3964557;32;15022173;-69
2021/11/17 13:39:56;;;;;;;26.73;4.65;;;;;;;22.01;36.58;101384.66;3993731;32;15028925;-69
2021/11/17 13:42:25;;;;;;;27.83;5.47;;;;;;;22.01;36.58;101384.66;4461881;32;20028;-69
2021/11/17 13:44:56;;;;;;;25.05;4.57;;;;;;;22.07;36.54;101374.84;4457896;32;20060;-70
2021/11/17 13:47:25;;;;;;;30.37;4.72;;;;;;;21.89;36.24;101366.56;4455136;32;20072;-70
2021/11/17 13:49:54;;;;;;;24.48;5.95;;;;;;;22.05;35.87;101373.75;4460443;32;20059;-70
2021/11/17 13:52:24;;;;;;;23.12;5.80;;;;;;;22.31;35.97;101381.12;4458640;32;20107;-70
2021/11/17 13:54:50;;;;;;;30.60;5.25;;;;;;;22.40;35.78;101372.34;4457249;32;20052;-70
2021/11/17 13:57:18;;;;;;;20.20;4.80;;;;;;;22.00;35.95;101371.63;4440569;32;20910;-70
2021/11/17 13:59:46;;;;;;;26.52;5.07;;;;;;;22.05;35.84;101383.16;4456425;32;20866;-71
2021/11/17 14:02:12;;;;;;;22.95;4.18;;;;;;;21.51;36.75;101393.34;4441049;32;20585;-70
2021/11/17 14:04:38;;;;;;;20.08;3.62;;;;;;;21.76;36.18;101377.59;4457812;32;20407;-70
2021/11/17 14:07:05;;;;;;;27.33;4.35;;;;;;;21.72;36.06;101373.31;4451426;32;20129;-70
2021/11/17 14:09:30;;;;;;;34.78;5.15;;;;;;;21.24;37.29;101376.56;4457400;32;20038;-70
2021/11/17 14:11:58;;;;;;;30.73;4.60;;;;;;;21.14;37.02;101377.16;4457266;32;20484;-69
2021/11/17 14:14:25;;;;;;;25.75;4.18;;;;;;;21.04;36.95;101381.41;4456425;32;20139;-69
2021/11/17 14:16:51;;;;;;;21.75;3.90;;;;;;;20.99;37.36;101359.22;4454855;32;21528;-69
2021/11/17 14:19:17;;;;;;;28.00;4.82;;;;;;;21.17;37.10;101362.63;4442407;32;20085;-69
2021/11/17 14:21:43;;;;;;;26.08;4.25;;;;;;;20.81;37.80;101373.72;4457724;32;20431;-70
2021/11/17 14:24:11;;;;;;;33.40;4.78;;;;;;;20.71;38.03;101383.69;4456279;32;20073;-69
2021/11/17 14:26:40;;;;;;;25.83;4.78;;;;;;;20.83;37.70;101376.88;4456258;32;20734;-69
2021/11/17 14:29:14;;;;;;;25.95;4.00;;;;;;;20.99;37.61;101385.75;4457587;32;20072;-69
2021/11/17 14:31:44;;;;;;;30.33;4.50;;;;;;;21.42;36.77;101395.56;4458806;32;20118;-69
2021/11/17 14:34:11;;;;;;;26.80;3.67;;;;;;;21.52;36.17;101388.41;4457301;32;20611;-70
2021/11/17 14:36:46;;;;;;;26.95;3.45;;;;;;;21.14;36.55;101382.91;4441795;32;21458;-70
2021/11/17 14:39:13;;;;;;;19.17;3.33;;;;;;;21.45;36.07;101400.28;4455797;32;20081;-70
2021/11/17 14:41:39;;;;;;;30.85;5.22;;;;;;;21.24;36.18;101392.94;4455837;32;20139;-70
2021/11/17 14:44:06;;;;;;;29.40;4.45;;;;;;;20.93;36.96;101396.28;4457512;32;21016;-70
2021/11/17 14:46:32;;;;;;;24.50;4.28;;;;;;;21.03;37.03;101391.28;4458580;32;20079;-69
2021/11/17 14:48:58;;;;;;;23.75;5.50;;;;;;;21.40;36.48;101383.81;4456803;32;21406;-70
2021/11/17 14:51:25;;;;;;;24.08;4.45;;;;;;;21.22;36.75;101390.56;4445382;32;21802;-69
2021/11/17 14:53:52;;;;;;;25.25;5.18;;;;;;;21.39;36.79;101396.56;4445902;32;20090;-70
2021/11/17 14:56:20;;;;;;;25.77;5.22;;;;;;;21.52;36.57;101394.13;4448214;32;20069;-70
2021/11/17 14:58:46;;;;;;;26.33;5.97;;;;;;;21.73;36.33;101384.28;4447330;32;20112;-70
2021/11/17 15:01:18;;;;;;;28.90;5.57;;;;;;;21.66;36.52;101388.34;4448149;32;20057;-70
2021/11/17 15:03:46;;;;;;;30.20;4.95;;;;;;;21.45;37.07;101392.47;4446175;32;20174;-69
2021/11/17 15:06:14;;;;;;;31.40;5.40;;;;;;;21.12;37.61;101394.84;4443615;32;20072;-69
2021/11/17 15:08:40;;;;;;;23.87;4.72;;;;;;;21.10;37.79;101396.59;4432334;32;20051;-70
2021/11/17 15:11:07;;;;;;;33.50;4.70;;;;;;;20.77;38.12;101404.59;4446598;32;20073;-70
2021/11/17 15:13:33;;;;;;;27.52;3.67;;;;;;;20.53;38.09;101386.75;4446534;32;20095;-70
2021/11/17 15:15:59;;;;;;;28.70;5.53;;;;;;;20.12;38.75;101391.41;4444257;32;20129;-70
2021/11/17 15:18:26;;;;;;;25.88;4.07;;;;;;;20.52;38.21;101405.97;4446636;32;20656;-70
2021/11/17 15:20:54;;;;;;;30.70;4.45;;;;;;;20.49;38.21;101403.31;4447744;32;20036;-71
2021/11/17 15:23:21;;;;;;;26.65;4.87;;;;;;;20.49;38.38;101409.03;4446569;32;20401;-70
2021/11/17 15:25:48;;;;;;;31.33;4.78;;;;;;;20.33;38.98;101426.63;4445567;32;20100;-71
2021/11/17 15:30:56;;;;;;;36.80;5.18;;;;;;;21.44;37.59;101425.28;3949793;32;15735544;-70
2021/11/17 15:33:21;;;;;;;28.62;4.55;;;;;;;21.44;37.59;101425.28;4427816;32;20025;-69
2021/11/17 15:35:47;;;;;;;35.92;4.12;;;;;;;20.75;38.60;101430.03;4428957;32;20107;-70
2021/11/17 15:38:14;;;;;;;26.48;4.37;;;;;;;20.58;37.97;101420.34;4429409;32;20052;-70
2021/11/17 15:40:44;;;;;;;30.80;4.15;;;;;;;20.58;38.63;101426.87;4431853;32;20038;-70
2021/11/17 15:43:09;;;;;;;22.40;4.12;;;;;;;20.57;38.39;101435.94;4433653;32;20014;-70
2021/11/17 15:45:35;;;;;;;24.85;4.12;;;;;;;20.44;38.47;101435.44;4429687;32;20056;-70
2021/11/17 15:48:02;;;;;;;24.90;4.10;;;;;;;20.31;38.65;101429.97;4429514;32;20066;-70
2021/11/17 15:50:32;;;;;;;24.70;3.53;;;;;;;20.46;38.53;101433.66;4432011;32;20157;-70
2021/11/17 15:52:58;;;;;;;32.22;3.83;;;;;;;20.70;37.85;101425.81;4432082;32;20499;-70
2021/11/17 15:55:24;;;;;;;26.52;4.32;;;;;;;20.52;37.98;101425.97;4432886;32;20041;-70
2021/11/17 15:57:51;;;;;;;28.45;3.90;;;;;;;20.43;37.96;101425.28;4414012;32;20489;-71
2021/11/17 16:00:20;;;;;;;24.10;4.03;;;;;;;20.62;37.80;101435.28;4430286;32;20099;-71
2021/11/17 16:02:46;;;;;;;31.17;4.90;;;;;;;20.61;37.71;101445.09;4428952;32;20847;-71
2021/11/17 16:05:12;;;;;;;25.50;5.03;;;;;;;20.77;37.60;101428.25;4429062;32;20069;-71
2021/11/17 16:07:38;;;;;;;30.15;4.00;;;;;;;20.90;37.37;101436.56;4427669;32;20030;-71
2021/11/17 16:10:07;;;;;;;27.00;4.32;;;;;;;20.82;37.49;101430.44;4434322;32;20115;-71
2021/11/17 16:12:34;;;;;;;22.75;4.30;;;;;;;20.99;37.63;101440.13;4431881;32;20068;-71
2021/11/17 16:15:04;;;;;;;25.75;4.32;;;;;;;20.89;38.05;101437.84;4429522;32;20101;-71
2021/11/17 16:17:32;;;;;;;26.02;4.85;;;;;;;20.83;38.33;101434.88;4429865;32;20056;-71
2021/11/17 16:19:59;;;;;;;41.97;6.50;;;;;;;20.68;38.63;101447.59;4428251;32;20102;-71
2021/11/17 16:22:31;;;;;;;46.50;5.53;;;;;;;20.38;40.09;101454.53;4430239;32;20164;-71
2021/11/17 16:27:45;;;;;;;38.15;7.62;;;;;;;20.67;39.45;101463.97;4426997;32;20789;-71
2021/11/17 16:30:13;;;;;;;27.33;7.32;;;;;;;20.06;40.10;101456.19;4427980;32;20114;-70
2021/11/17 16:32:41;;;;;;;24.50;4.20;;;;;;;20.18;40.59;101469.47;4433626;32;20118;-70
2021/11/17 16:35:09;;;;;;;22.70;4.70;;;;;;;19.56;40.79;101460.00;4432360;32;20061;-71
2021/11/17 16:37:35;;;;;;;25.48;4.07;;;;;;;19.64;40.71;101473.41;4428806;32;20073;-71
2021/11/17 16:40:01;;;;;;;30.30;5.05;;;;;;;19.35;40.79;101456.12;4432950;32;20077;-71
2021/11/17 16:42:27;;;;;;;30.02;4.55;;;;;;;19.62;40.59;101467.41;4405166;32;20041;-71
2021/11/17 16:44:52;;;;;;;23.58;4.55;;;;;;;19.58;40.38;101468.88;4421105;32;20434;-71
2021/11/17 16:47:20;;;;;;;27.05;3.92;;;;;;;19.44;40.53;101466.69;4418147;32;20773;-71
2021/11/17 16:49:46;;;;;;;31.75;4.87;;;;;;;19.48;40.26;101470.16;4423612;32;20484;-71
2021/11/17 16:54:54;;;;;;;34.35;6.80;;;;;;;19.93;39.62;101466.28;3961542;32;15021629;-71
2021/11/17 16:57:20;;;;;;;20.88;4.35;;;;;;;19.84;40.23;101464.28;4417412;32;20085;-75
2021/11/17 16:59:46;;;;;;;30.10;4.55;;;;;;;19.97;40.07;101470.53;4401191;32;21426;-71
2021/11/17 17:02:12;;;;;;;26.98;4.75;;;;;;;19.83;39.83;101470.47;4418143;32;20127;-71
2021/11/17 17:04:40;;;;;;;31.30;5.03;;;;;;;19.78;40.06;101471.91;4415415;32;20034;-71
2021/11/17 17:07:08;;;;;;;27.87;4.75;;;;;;;19.86;39.90;101469.50;4415954;32;20194;-71
2021/11/17 17:09:34;;;;;;;20.92;3.78;;;;;;;19.72;40.20;101468.16;4417870;32;20085;-71
2021/11/17 17:12:00;;;;;;;27.08;3.40;;;;;;;19.68;40.33;101465.50;4417731;32;20034;-71
2021/11/17 17:14:27;;;;;;;25.08;4.37;;;;;;;19.78;39.95;101472.72;4418365;32;20038;-71
2021/11/17 17:16:53;;;;;;;29.48;4.37;;;;;;;19.93;39.89;101475.66;4417763;32;20193;-71
2021/11/17 17:19:19;;;;;;;22.58;4.40;;;;;;;19.73;39.91;101481.94;4416511;32;21542;-71
2021/11/17 17:21:45;;;;;;;38.67;5.50;;;;;;;19.40;40.39;101478.31;4416835;32;20085;-71
2021/11/17 17:24:11;;;;;;;29.90;5.25;;;;;;;19.52;40.16;101482.22;4404783;32;20074;-71
2021/11/17 17:26:39;;;;;;;25.95;4.18;;;;;;;19.76;40.00;101480.19;4418526;32;20092;-71
2021/11/17 17:29:06;;;;;;;32.22;4.70;;;;;;;19.69;39.89;101489.91;4418561;32;20074;-71
2021/11/17 17:31:33;;;;;;;26.95;4.28;;;;;;;20.03;39.25;101494.31;4415226;32;20076;-71
2021/11/17 17:34:00;;;;;;;22.85;4.37;;;;;;;20.03;39.18;101490.69;4416583;32;20109;-71
2021/11/17 17:36:27;;;;;;;25.75;5.25;;;;;;;19.79;39.35;101490.66;4419069;32;20041;-70
2021/11/17 17:38:53;;;;;;;22.75;4.12;;;;;;;20.19;38.80;101490.28;4414888;32;20530;-72
2021/11/17 17:41:20;;;;;;;23.38;4.82;;;;;;;20.12;38.95;101493.47;4418562;32;20025;-70
2021/11/17 17:43:46;;;;;;;35.38;5.22;;;;;;;20.37;38.78;101502.34;4416678;32;20070;-70
2021/11/17 17:46:14;;;;;;;24.48;4.22;;;;;;;20.33;38.88;101501.75;4417430;32;20163;-69
2021/11/17 17:48:42;;;;;;;34.30;4.18;;;;;;;20.36;38.96;101508.56;4417627;32;20083;-69
2021/11/17 17:51:09;;;;;;;29.17;4.78;;;;;;;20.28;38.61;101504.50;4402201;32;20189;-70
2021/11/17 17:53:34;;;;;;;21.92;4.00;;;;;;;20.45;38.71;101517.06;4417591;32;20134;-70
2021/11/17 17:56:01;;;;;;;17.90;3.75;;;;;;;20.26;38.77;101518.47;4416660;32;20858;-70
2021/11/17 17:58:27;;;;;;;26.77;4.72;;;;;;;20.22;38.76;101515.78;4422495;32;20041;-70
2021/11/17 18:00:55;;;;;;;28.55;4.05;;;;;;;20.22;38.82;101527.22;4418626;32;20390;-70
2021/11/17 18:03:25;;;;;;;28.10;4.95;;;;;;;20.03;39.02;101533.53;4419138;32;20417;-70
2021/11/17 18:05:52;;;;;;;29.95;4.12;;;;;;;20.07;39.28;101534.94;4408917;32;20085;-70
2021/11/17 18:08:21;;;;;;;24.08;4.40;;;;;;;19.95;38.98;101524.53;4391118;32;20063;-70
2021/11/17 18:10:48;;;;;;;26.73;4.72;;;;;;;20.06;38.99;101524.75;4409276;32;20100;-70
2021/11/17 18:13:16;;;;;;;21.58;4.28;;;;;;;19.89;38.94;101525.66;4408718;32;20085;-69
2021/11/17 18:15:46;;;;;;;22.08;4.10;;;;;;;20.03;38.99;101528.59;4405720;32;20105;-70
2021/11/17 18:18:12;;;;;;;23.27;4.15;;;;;;;20.11;38.51;101518.41;4408211;32;20105;-70
2021/11/17 18:20:38;;;;;;;23.60;4.03;;;;;;;19.49;39.40;101526.78;4391716;32;20151;-70
2021/11/17 18:23:06;;;;;;;21.58;3.95;;;;;;;19.38;39.85;101532.22;4404362;32;20049;-69
2021/11/17 18:25:38;;;;;;;35.45;5.15;;;;;;;19.56;39.23;101517.09;4404239;32;20085;-70
2021/11/17 18:28:06;;;;;;;24.35;3.75;;;;;;;19.50;39.85;101516.97;4409880;32;20077;-70
2021/11/17 18:30:32;;;;;;;32.35;4.62;;;;;;;19.46;39.99;101521.25;4408472;32;20118;-69
2021/11/17 18:33:00;;;;;;;28.48;4.25;;;;;;;19.19;40.26;101522.09;4409303;32;20134;-69
2021/11/17 18:35:28;;;;;;;25.73;3.80;;;;;;;18.77;40.97;101528.97;4407286;32;20547;-70
2021/11/17 18:37:54;;;;;;;22.83;4.95;;;;;;;19.16;40.35;101530.81;4405465;32;20093;-69